createdAt,value
2022-08-07T00:00:11.066Z,101441.05
2022-08-07T00:01:43.221Z,101440.34
2022-08-07T00:02:36.755Z,101436.14
2022-08-07T00:03:13.205Z,101433.71
2022-08-07T00:04:11.405Z,101434.78
2022-08-07T00:05:11.253Z,101436.74
2022-08-07T00:06:11.062Z,101434.55
2022-08-07T00:07:11.063Z,101435.97
2022-08-07T00:08:11.070Z,101438.25
2022-08-07T00:09:16.169Z,101437.03
2022-08-07T00:10:27.300Z,101438.04
2022-08-07T00:11:13.071Z,101441.57
2022-08-07T00:12:16.396Z,101441.24
2022-08-07T00:13:23.826Z,101439.16
2022-08-07T00:14:13.163Z,101439.26
2022-08-07T00:15:11.061Z,101437.45
2022-08-07T00:16:11.067Z,101435.02
2022-08-07T00:17:13.174Z,101434.80
2022-08-07T00:18:19.789Z,101432.04
2022-08-07T00:19:21.309Z,101428.99
2022-08-07T00:20:15.655Z,101431.09
2022-08-07T00:21:56.445Z,101430.20
2022-08-07T00:22:13.148Z,101430.81
2022-08-07T00:23:14.206Z,101433.80
2022-08-07T00:24:11.073Z,101433.47
2022-08-07T00:25:16.788Z,101436.18
2022-08-07T00:26:31.144Z,101435.02
2022-08-07T00:27:13.265Z,101435.41
2022-08-07T00:28:11.054Z,101437.84
2022-08-07T00:29:11.057Z,101433.36
2022-08-07T00:30:21.593Z,101435.58
2022-08-07T00:31:16.537Z,101435.53
2022-08-07T00:32:11.065Z,101430.99
2022-08-07T00:33:11.058Z,101432.59
2022-08-07T00:34:11.053Z,101432.77
2022-08-07T00:35:11.056Z,101430.52
2022-08-07T00:36:13.175Z,101431.34
2022-08-07T00:37:11.058Z,101430.68
2022-08-07T00:38:11.059Z,101431.50
2022-08-07T00:39:12.863Z,101429.13
2022-08-07T00:40:14.066Z,101429.84
2022-08-07T00:41:14.863Z,101430.62
2022-08-07T00:42:11.058Z,101434.28
2022-08-07T00:43:59.387Z,101431.73
2022-08-07T00:44:15.214Z,101428.26
2022-08-07T00:45:16.394Z,101427.93
2022-08-07T00:46:13.142Z,101426.10
2022-08-07T00:47:15.852Z,101428.00
2022-08-07T00:48:13.290Z,101425.77
2022-08-07T00:49:11.060Z,101423.36
2022-08-07T00:50:19.781Z,101422.65
2022-08-07T00:51:13.158Z,101423.14
2022-08-07T00:52:11.058Z,101421.54
2022-08-07T00:53:11.060Z,101421.21
2022-08-07T00:54:11.061Z,101419.62
2022-08-07T00:55:11.070Z,101422.42
2022-08-07T00:56:14.012Z,101421.22
2022-08-07T00:57:11.068Z,101418.79
2022-08-07T00:58:11.058Z,101417.01
2022-08-07T00:59:11.064Z,101413.09
2022-08-07T01:00:11.067Z,101414.27
2022-08-07T01:01:11.167Z,101417.14
2022-08-07T01:02:27.800Z,101413.83
2022-08-07T01:03:13.165Z,101414.54
2022-08-07T01:04:11.063Z,101414.43
2022-08-07T01:05:19.180Z,101410.25
2022-08-07T01:06:13.179Z,101407.00
2022-08-07T01:07:11.064Z,101407.97
2022-08-07T01:08:11.062Z,101405.77
2022-08-07T01:09:11.060Z,101410.52
2022-08-07T01:10:13.167Z,101412.55
2022-08-07T01:12:04.851Z,101407.03
2022-08-07T01:12:29.192Z,101406.97
2022-08-07T01:13:13.141Z,101405.54
2022-08-07T01:14:11.062Z,101408.86
2022-08-07T01:15:12.001Z,101406.92
2022-08-07T01:16:13.107Z,101406.30
2022-08-07T01:17:13.111Z,101404.55
2022-08-07T01:18:11.064Z,101409.88
2022-08-07T01:19:19.295Z,101408.40
2022-08-07T01:20:16.766Z,101407.23
2022-08-07T01:21:22.801Z,101407.47
2022-08-07T01:22:16.202Z,101405.30
2022-08-07T01:23:13.163Z,101405.30
2022-08-07T01:24:11.058Z,101406.29
2022-08-07T01:25:40.448Z,101404.96
2022-08-07T01:26:13.193Z,101407.56
2022-08-07T01:27:19.683Z,101407.57
2022-08-07T01:28:13.173Z,101406.95
2022-08-07T01:29:11.053Z,101404.76
2022-08-07T01:30:11.060Z,101405.68
2022-08-07T01:31:11.059Z,101403.80
2022-08-07T01:32:12.368Z,101405.85
2022-08-07T01:33:11.058Z,101401.66
2022-08-07T01:34:11.061Z,101405.98
2022-08-07T01:35:11.057Z,101405.09
2022-08-07T01:36:15.091Z,101400.30
2022-08-07T01:37:11.065Z,101399.13
2022-08-07T01:38:11.056Z,101398.31
2022-08-07T01:39:11.120Z,101398.02
2022-08-07T01:40:14.806Z,101398.07
2022-08-07T01:41:11.059Z,101400.39
2022-08-07T01:42:38.579Z,101401.37
2022-08-07T01:43:13.361Z,101400.71
2022-08-07T01:44:11.067Z,101398.82
2022-08-07T01:45:18.219Z,101397.06
2022-08-07T01:46:13.329Z,101398.61
2022-08-07T01:48:16.486Z,101395.83
2022-08-07T01:48:21.278Z,101396.88
2022-08-07T01:49:13.140Z,101395.01
2022-08-07T01:50:11.060Z,101397.71
2022-08-07T01:51:58.768Z,101396.83
2022-08-07T01:52:13.303Z,101396.99
2022-08-07T01:53:21.125Z,101399.47
2022-08-07T01:54:33.354Z,101399.45
2022-08-07T01:55:22.498Z,101396.86
2022-08-07T01:56:18.150Z,101398.91
2022-08-07T01:57:20.422Z,101397.23
2022-08-07T01:58:27.824Z,101394.43
2022-08-07T01:59:17.160Z,101394.41
2022-08-07T02:00:12.829Z,101393.34
2022-08-07T02:01:25.512Z,101392.89
2022-08-07T02:02:32.737Z,101394.16
2022-08-07T02:03:21.170Z,101394.08
2022-08-07T02:04:23.350Z,101391.62
2022-08-07T02:05:47.891Z,101391.84
2022-08-07T02:06:30.737Z,101391.59
2022-08-07T02:07:13.120Z,101389.71
2022-08-07T02:08:17.064Z,101389.94
2022-08-07T02:09:52.402Z,101389.45
2022-08-07T02:10:14.521Z,101390.68
2022-08-07T02:11:11.068Z,101391.22
2022-08-07T02:12:18.149Z,101388.64
2022-08-07T02:13:11.065Z,101386.86
2022-08-07T02:14:11.065Z,101388.12
2022-08-07T02:15:13.068Z,101385.87
2022-08-07T02:16:11.818Z,101383.89
2022-08-07T02:17:12.065Z,101382.57
2022-08-07T02:18:12.111Z,101382.67
2022-08-07T02:20:07.732Z,101379.15
2022-08-07T02:20:17.096Z,101380.03
2022-08-07T02:21:16.206Z,101383.28
2022-08-07T02:22:14.154Z,101383.53
2022-08-07T02:23:11.691Z,101383.65
2022-08-07T02:24:11.060Z,101381.35
2022-08-07T02:25:13.850Z,101379.20
2022-08-07T02:26:33.082Z,101378.86
2022-08-07T02:27:13.130Z,101377.05
2022-08-07T02:28:11.380Z,101375.01
2022-08-07T02:29:13.741Z,101374.69
2022-08-07T02:30:11.060Z,101374.63
2022-08-07T02:31:29.074Z,101372.41
2022-08-07T02:32:13.349Z,101372.91
2022-08-07T02:33:11.067Z,101373.32
2022-08-07T02:34:16.842Z,101374.33
2022-08-07T02:35:13.162Z,101372.77
2022-08-07T02:36:28.341Z,101371.52
2022-08-07T02:37:14.148Z,101374.97
2022-08-07T02:38:11.068Z,101373.61
2022-08-07T02:39:17.208Z,101377.34
2022-08-07T02:40:29.993Z,101372.43
2022-08-07T02:41:13.189Z,101370.20
2022-08-07T02:42:14.793Z,101367.89
2022-08-07T02:43:11.061Z,101368.21
2022-08-07T02:44:11.065Z,101368.77
2022-08-07T02:45:58.788Z,101367.49
2022-08-07T02:46:13.164Z,101370.63
2022-08-07T02:47:19.699Z,101370.70
2022-08-07T02:48:15.557Z,101370.08
2022-08-07T02:49:11.068Z,101370.47
2022-08-07T02:50:13.126Z,101367.84
2022-08-07T02:51:14.325Z,101371.35
2022-08-07T02:52:15.229Z,101368.33
2022-08-07T02:53:16.145Z,101369.64
2022-08-07T02:54:11.065Z,101370.63
2022-08-07T02:55:15.306Z,101371.68
2022-08-07T02:56:21.081Z,101372.89
2022-08-07T02:57:17.159Z,101371.84
2022-08-07T02:58:13.066Z,101369.37
2022-08-07T02:59:11.060Z,101369.95
2022-08-07T03:00:11.778Z,101368.95
2022-08-07T03:01:18.605Z,101370.88
2022-08-07T03:02:13.217Z,101369.94
2022-08-07T03:03:13.605Z,101368.56
2022-08-07T03:04:12.472Z,101369.81
2022-08-07T03:05:11.065Z,101370.53
2022-08-07T03:06:16.381Z,101372.43
2022-08-07T03:07:13.110Z,101370.84
2022-08-07T03:08:11.408Z,101370.52
2022-08-07T03:09:11.628Z,101365.95
2022-08-07T03:10:11.066Z,101374.04
2022-08-07T03:11:11.075Z,101370.80
2022-08-07T03:12:16.196Z,101373.27
2022-08-07T03:13:13.177Z,101371.24
2022-08-07T03:14:11.066Z,101371.32
2022-08-07T03:15:12.027Z,101372.93
2022-08-07T03:16:11.062Z,101371.71
2022-08-07T03:17:11.066Z,101371.81
2022-08-07T03:18:11.071Z,101368.99
2022-08-07T03:19:13.709Z,101368.67
2022-08-07T03:20:11.066Z,101367.27
2022-08-07T03:21:11.363Z,101361.70
2022-08-07T03:22:18.821Z,101363.02
2022-08-07T03:23:18.945Z,101360.72
2022-08-07T03:24:20.686Z,101355.70
2022-08-07T03:25:13.146Z,101356.38
2022-08-07T03:26:20.956Z,101356.59
2022-08-07T03:27:13.149Z,101355.13
2022-08-07T03:28:38.519Z,101352.33
2022-08-07T03:29:14.898Z,101352.50
2022-08-07T03:30:11.066Z,101353.93
2022-08-07T03:31:15.058Z,101353.95
2022-08-07T03:32:13.504Z,101354.32
2022-08-07T03:33:11.061Z,101354.32
2022-08-07T03:34:11.060Z,101353.51
2022-08-07T03:35:18.641Z,101356.22
2022-08-07T03:36:13.068Z,101358.18
2022-08-07T03:37:11.988Z,101358.85
2022-08-07T03:38:11.061Z,101356.32
2022-08-07T03:39:13.091Z,101357.13
2022-08-07T03:40:15.494Z,101352.80
2022-08-07T03:41:13.159Z,101352.92
2022-08-07T03:42:11.059Z,101355.55
2022-08-07T03:43:13.624Z,101356.14
2022-08-07T03:44:11.067Z,101356.25
2022-08-07T03:45:11.064Z,101352.61
2022-08-07T03:46:18.485Z,101354.76
2022-08-07T03:47:14.722Z,101351.23
2022-08-07T03:48:11.607Z,101354.85
2022-08-07T03:49:11.061Z,101349.33
2022-08-07T03:50:13.133Z,101349.44
2022-08-07T03:51:11.063Z,101348.21
2022-08-07T03:52:22.919Z,101348.61
2022-08-07T03:53:13.373Z,101345.21
2022-08-07T03:54:36.484Z,101346.14
2022-08-07T03:55:13.144Z,101346.18
2022-08-07T03:56:13.764Z,101345.09
2022-08-07T03:57:11.061Z,101345.08
2022-08-07T03:58:35.293Z,101346.28
2022-08-07T03:59:15.489Z,101343.85
2022-08-07T04:00:11.060Z,101343.08
2022-08-07T04:01:11.554Z,101343.32
2022-08-07T04:02:11.069Z,101342.64
2022-08-07T04:03:11.064Z,101345.42
2022-08-07T04:04:11.059Z,101343.12
2022-08-07T04:05:13.166Z,101343.68
2022-08-07T04:06:11.063Z,101343.42
2022-08-07T04:07:17.329Z,101339.19
2022-08-07T04:08:13.065Z,101336.77
2022-08-07T04:09:15.323Z,101337.77
2022-08-07T04:10:15.641Z,101334.42
2022-08-07T04:12:23.653Z,101337.98
2022-08-07T04:12:26.622Z,101332.59
2022-08-07T04:13:17.140Z,101338.96
2022-08-07T04:14:37.473Z,101339.07
2022-08-07T04:15:13.227Z,101336.61
2022-08-07T04:16:11.067Z,101339.04
2022-08-07T04:17:20.108Z,101338.59
2022-08-07T04:18:58.697Z,101335.09
2022-08-07T04:19:15.384Z,101337.70
2022-08-07T04:20:13.064Z,101338.52
2022-08-07T04:21:11.065Z,101337.09
2022-08-07T04:22:13.325Z,101336.03
2022-08-07T04:23:19.226Z,101339.33
2022-08-07T04:24:30.576Z,101342.09
2022-08-07T04:25:13.157Z,101338.01
2022-08-07T04:26:11.062Z,101338.89
2022-08-07T04:27:15.234Z,101339.23
2022-08-07T04:28:13.378Z,101337.64
2022-08-07T04:29:11.167Z,101337.77
2022-08-07T04:30:21.341Z,101336.04
2022-08-07T04:31:19.651Z,101334.44
2022-08-07T04:32:13.155Z,101333.34
2022-08-07T04:33:11.417Z,101334.24
2022-08-07T04:34:16.649Z,101335.05
2022-08-07T04:35:13.098Z,101333.07
2022-08-07T04:36:12.068Z,101331.70
2022-08-07T04:37:20.250Z,101335.39
2022-08-07T04:38:13.577Z,101335.88
2022-08-07T04:39:11.133Z,101338.68
2022-08-07T04:40:11.061Z,101336.91
2022-08-07T04:41:18.170Z,101335.65
2022-08-07T04:42:13.140Z,101334.75
2022-08-07T04:43:11.070Z,101336.79
2022-08-07T04:44:18.618Z,101337.23
2022-08-07T04:45:13.163Z,101339.03
2022-08-07T04:46:29.638Z,101342.43
2022-08-07T04:47:23.465Z,101340.11
2022-08-07T04:48:18.297Z,101343.79
2022-08-07T04:49:18.371Z,101339.27
2022-08-07T04:50:19.124Z,101338.17
2022-08-07T04:51:19.061Z,101338.21
2022-08-07T04:52:21.063Z,101335.13
2022-08-07T04:53:40.170Z,101339.31
2022-08-07T04:54:29.909Z,101340.52
2022-08-07T04:58:11.959Z,101339.98
2022-08-07T04:58:12.101Z,101342.27
2022-08-07T04:58:14.163Z,101341.33
2022-08-07T04:58:33.708Z,101343.07
2022-08-07T05:00:12.729Z,101343.05
2022-08-07T05:00:30.200Z,101338.84
2022-08-07T05:01:21.293Z,101343.96
2022-08-07T05:02:20.597Z,101333.57
2022-08-07T05:03:38.755Z,101339.31
2022-08-07T05:04:23.326Z,101340.25
2022-08-07T05:05:52.791Z,101343.19
2022-08-07T05:06:20.111Z,101343.86
2022-08-07T05:07:30.397Z,101342.88
2022-08-07T05:08:19.129Z,101345.23
2022-08-07T05:09:18.123Z,101345.38
2022-08-07T05:10:15.367Z,101347.80
2022-08-07T05:11:19.417Z,101346.15
2022-08-07T05:12:13.254Z,101349.53
2022-08-07T05:14:53.264Z,101350.15
2022-08-07T05:14:55.794Z,101349.61
2022-08-07T05:15:25.264Z,101351.50
2022-08-07T05:16:14.064Z,101352.06
2022-08-07T05:17:11.830Z,101353.31
2022-08-07T05:18:19.067Z,101355.68
2022-08-07T05:19:14.072Z,101356.30
2022-08-07T05:20:13.063Z,101356.38
2022-08-07T05:21:14.635Z,101355.93
2022-08-07T05:22:11.073Z,101359.33
2022-08-07T05:23:17.087Z,101358.99
2022-08-07T05:24:12.059Z,101358.82
2022-08-07T05:25:25.956Z,101360.21
2022-08-07T05:26:24.422Z,101361.05
2022-08-07T05:28:03.324Z,101364.46
2022-08-07T05:28:20.833Z,101367.55
2022-08-07T05:29:13.136Z,101368.90
2022-08-07T05:30:11.064Z,101370.53
2022-08-07T05:31:12.057Z,101369.35
2022-08-07T05:32:11.056Z,101365.96
2022-08-07T05:33:11.077Z,101370.95
2022-08-07T05:34:12.168Z,101369.30
2022-08-07T05:35:11.058Z,101368.26
2022-08-07T05:36:12.108Z,101368.40
2022-08-07T05:37:11.061Z,101365.84
2022-08-07T05:38:11.070Z,101369.31
2022-08-07T05:40:13.675Z,101366.31
2022-08-07T05:40:18.716Z,101370.06
2022-08-07T05:41:15.687Z,101367.98
2022-08-07T05:42:12.104Z,101367.22
2022-08-07T05:43:11.635Z,101371.25
2022-08-07T05:44:11.921Z,101368.99
2022-08-07T05:45:25.742Z,101372.42
2022-08-07T05:46:13.090Z,101376.29
2022-08-07T05:47:11.817Z,101378.27
2022-08-07T05:48:13.125Z,101377.14
2022-08-07T05:49:12.459Z,101381.48
2022-08-07T05:50:11.077Z,101379.51
2022-08-07T05:51:11.061Z,101381.38
2022-08-07T05:52:11.599Z,101384.43
2022-08-07T05:54:12.866Z,101378.53
2022-08-07T05:54:31.452Z,101380.53
2022-08-07T05:55:13.211Z,101380.20
2022-08-07T05:56:12.489Z,101380.09
2022-08-07T05:57:11.062Z,101377.24
2022-08-07T05:58:11.077Z,101377.15
2022-08-07T05:59:16.068Z,101378.48
2022-08-07T06:00:16.616Z,101378.00
2022-08-07T06:01:13.280Z,101375.77
2022-08-07T06:02:13.108Z,101380.32
2022-08-07T06:03:13.119Z,101380.05
2022-08-07T06:04:11.063Z,101383.61
2022-08-07T06:05:15.653Z,101379.54
2022-08-07T06:06:11.071Z,101382.47
2022-08-07T06:07:22.790Z,101385.63
2022-08-07T06:08:29.750Z,101386.96
2022-08-07T06:09:13.150Z,101389.27
2022-08-07T06:10:11.337Z,101391.25
2022-08-07T06:11:11.065Z,101391.66
2022-08-07T06:12:11.061Z,101387.86
2022-08-07T06:13:13.709Z,101389.30
2022-08-07T06:14:21.383Z,101387.77
2022-08-07T06:15:16.237Z,101390.81
2022-08-07T06:16:13.483Z,101389.12
2022-08-07T06:17:11.072Z,101386.26
2022-08-07T06:18:11.068Z,101385.86
2022-08-07T06:19:17.652Z,101386.69
2022-08-07T06:20:25.502Z,101382.73
2022-08-07T06:22:14.717Z,101385.94
2022-08-07T06:22:22.647Z,101383.01
2022-08-07T06:23:46.870Z,101384.70
2022-08-07T06:24:39.212Z,101383.13
2022-08-07T06:25:13.144Z,101384.34
2022-08-07T06:26:13.059Z,101382.21
2022-08-07T06:27:11.055Z,101386.18
2022-08-07T06:28:14.895Z,101382.94
2022-08-07T06:29:11.066Z,101380.80
2022-08-07T06:30:32.257Z,101382.79
2022-08-07T06:31:13.206Z,101387.09
2022-08-07T06:32:11.065Z,101386.07
2022-08-07T06:33:16.350Z,101386.89
2022-08-07T06:34:13.354Z,101387.74
2022-08-07T06:35:17.967Z,101387.25
2022-08-07T06:36:14.198Z,101387.08
2022-08-07T06:37:17.160Z,101384.36
2022-08-07T06:38:19.823Z,101385.84
2022-08-07T06:40:16.774Z,101386.14
2022-08-07T06:40:20.447Z,101386.73
2022-08-07T06:41:47.613Z,101383.60
2022-08-07T06:42:33.147Z,101385.42
2022-08-07T06:43:20.939Z,101385.09
2022-08-07T06:44:14.204Z,101385.69
2022-08-07T06:45:13.060Z,101382.22
2022-08-07T06:46:13.267Z,101382.95
2022-08-07T06:47:15.194Z,101386.63
2022-08-07T06:48:11.423Z,101384.04
2022-08-07T06:49:11.067Z,101383.49
2022-08-07T06:50:11.072Z,101385.25
2022-08-07T06:51:12.063Z,101386.31
2022-08-07T06:52:11.069Z,101384.10
2022-08-07T06:53:49.290Z,101383.10
2022-08-07T06:55:33.047Z,101378.62
2022-08-07T06:55:33.712Z,101379.63
2022-08-07T06:56:15.390Z,101379.83
2022-08-07T06:57:11.063Z,101377.57
2022-08-07T06:58:12.059Z,101378.61
2022-08-07T07:00:12.089Z,101379.27
2022-08-07T07:00:18.199Z,101376.00
2022-08-07T07:01:14.288Z,101378.14
2022-08-07T07:02:15.109Z,101378.19
2022-08-07T07:03:14.386Z,101377.31
2022-08-07T07:04:28.152Z,101372.01
2022-08-07T07:05:13.102Z,101374.70
2022-08-07T07:06:11.556Z,101371.55
2022-08-07T07:07:19.426Z,101373.41
2022-08-07T07:08:18.656Z,101374.79
2022-08-07T07:09:21.105Z,101372.05
2022-08-07T07:10:11.063Z,101371.54
2022-08-07T07:11:14.515Z,101371.86
2022-08-07T07:12:26.688Z,101371.46
2022-08-07T07:13:56.710Z,101370.21
2022-08-07T07:14:13.987Z,101372.42
2022-08-07T07:15:23.883Z,101371.91
2022-08-07T07:16:19.504Z,101369.63
2022-08-07T07:17:19.071Z,101368.73
2022-08-07T07:18:33.112Z,101368.38
2022-08-07T07:19:55.799Z,101368.00
2022-08-07T07:20:20.198Z,101370.36
2022-08-07T07:21:19.421Z,101365.70
2022-08-07T07:22:33.975Z,101367.84
2022-08-07T07:24:10.324Z,101366.69
2022-08-07T07:24:13.171Z,101364.74
2022-08-07T07:26:31.304Z,101365.62
2022-08-07T07:26:34.683Z,101367.15
2022-08-07T07:27:13.113Z,101361.29
2022-08-07T07:28:42.406Z,101364.04
2022-08-07T07:29:57.079Z,101362.64
2022-08-07T07:30:13.221Z,101363.19
2022-08-07T07:31:21.567Z,101363.64
2022-08-07T07:32:11.063Z,101363.51
2022-08-07T07:33:14.058Z,101363.21
2022-08-07T07:34:12.067Z,101365.34
2022-08-07T07:35:11.063Z,101359.32
2022-08-07T07:36:13.456Z,101362.34
2022-08-07T07:37:21.838Z,101363.55
2022-08-07T07:38:13.200Z,101360.73
2022-08-07T07:39:11.100Z,101361.29
2022-08-07T07:40:16.152Z,101357.95
2022-08-07T07:41:11.087Z,101358.41
2022-08-07T07:42:14.043Z,101356.09
2022-08-07T07:43:15.031Z,101357.38
2022-08-07T07:44:14.614Z,101357.79
2022-08-07T07:45:13.156Z,101356.73
2022-08-07T07:46:37.148Z,101359.34
2022-08-07T07:47:23.000Z,101362.02
2022-08-07T07:48:34.805Z,101364.70
2022-08-07T07:50:33.019Z,101365.58
2022-08-07T07:50:33.456Z,101366.82
2022-08-07T07:51:13.119Z,101364.81
2022-08-07T07:52:11.064Z,101366.74
2022-08-07T07:53:20.499Z,101366.96
2022-08-07T07:54:14.167Z,101363.23
2022-08-07T07:55:11.527Z,101363.17
2022-08-07T07:56:11.060Z,101365.52
2022-08-07T07:57:11.210Z,101364.56
2022-08-07T07:58:11.062Z,101365.14
2022-08-07T07:59:11.073Z,101363.17
2022-08-07T08:00:11.061Z,101364.35
2022-08-07T08:02:02.341Z,101363.10
2022-08-07T08:02:13.354Z,101368.11
2022-08-07T08:03:16.324Z,101370.07
2022-08-07T08:04:11.991Z,101371.63
2022-08-07T08:05:14.461Z,101374.20
2022-08-07T08:06:11.675Z,101371.36
2022-08-07T08:07:11.058Z,101370.11
2022-08-07T08:08:35.776Z,101372.30
2022-08-07T08:09:13.501Z,101375.03
2022-08-07T08:10:14.935Z,101375.88
2022-08-07T08:11:16.600Z,101372.96
2022-08-07T08:12:22.601Z,101372.61
2022-08-07T08:13:15.360Z,101372.69
2022-08-07T08:14:11.064Z,101369.89
2022-08-07T08:15:11.065Z,101369.94
2022-08-07T08:16:12.732Z,101368.16
2022-08-07T08:17:14.208Z,101370.61
2022-08-07T08:18:17.270Z,101367.22
2022-08-07T08:19:18.013Z,101366.89
2022-08-07T08:20:17.329Z,101365.29
2022-08-07T08:21:13.155Z,101362.76
2022-08-07T08:22:15.064Z,101362.86
2022-08-07T08:23:15.058Z,101367.45
2022-08-07T08:24:34.322Z,101363.02
2022-08-07T08:25:25.075Z,101363.16
2022-08-07T08:26:17.250Z,101360.86
2022-08-07T08:27:13.054Z,101362.30
2022-08-07T08:28:17.029Z,101357.04
2022-08-07T08:29:14.056Z,101357.30
2022-08-07T08:30:14.122Z,101357.68
2022-08-07T08:31:16.261Z,101355.65
2022-08-07T08:32:18.880Z,101358.31
2022-08-07T08:33:16.063Z,101354.65
2022-08-07T08:34:12.428Z,101355.19
2022-08-07T08:35:14.125Z,101356.22
2022-08-07T08:36:11.063Z,101355.78
2022-08-07T08:38:01.186Z,101354.49
2022-08-07T08:38:14.156Z,101358.10
2022-08-07T08:39:11.105Z,101354.27
2022-08-07T08:40:16.396Z,101355.76
2022-08-07T08:41:24.333Z,101355.53
2022-08-07T08:42:25.821Z,101351.27
2022-08-07T08:43:21.074Z,101351.65
2022-08-07T08:44:29.245Z,101351.68
2022-08-07T08:45:21.090Z,101352.16
2022-08-07T08:46:21.911Z,101350.09
2022-08-07T08:47:20.138Z,101345.94
2022-08-07T08:48:19.064Z,101346.69
2022-08-07T08:49:32.712Z,101344.99
2022-08-07T08:50:34.910Z,101346.68
2022-08-07T08:51:49.160Z,101344.16
2022-08-07T08:52:20.283Z,101344.14
2022-08-07T08:53:19.063Z,101344.21
2022-08-07T08:54:16.069Z,101341.92
2022-08-07T08:55:21.256Z,101343.32
2022-08-07T08:56:24.472Z,101342.02
2022-08-07T08:57:17.058Z,101339.08
2022-08-07T08:58:20.371Z,101337.34
2022-08-07T08:59:21.271Z,101340.49
2022-08-07T09:00:11.072Z,101341.65
2022-08-07T09:01:19.069Z,101341.43
2022-08-07T09:02:34.740Z,101338.53
2022-08-07T09:03:23.273Z,101335.18
2022-08-07T09:04:18.236Z,101332.25
2022-08-07T09:05:36.999Z,101333.60
2022-08-07T09:06:19.106Z,101333.81
2022-08-07T09:07:27.097Z,101329.02
2022-08-07T09:08:28.200Z,101336.81
2022-08-07T09:09:23.799Z,101334.53
2022-08-07T09:10:25.264Z,101331.94
2022-08-07T09:11:24.507Z,101331.57
2022-08-07T09:12:31.130Z,101335.38
2022-08-07T09:13:37.109Z,101330.37
2022-08-07T09:14:18.098Z,101333.86
2022-08-07T09:16:24.754Z,101330.83
2022-08-07T09:16:29.833Z,101328.95
2022-08-07T09:17:23.088Z,101328.55
2022-08-07T09:18:22.660Z,101329.60
2022-08-07T09:19:51.866Z,101326.95
2022-08-07T09:20:34.833Z,101328.23
2022-08-07T09:21:58.277Z,101333.03
2022-08-07T09:24:28.145Z,101329.79
2022-08-07T09:24:31.525Z,101333.00
2022-08-07T09:24:33.684Z,101331.57
2022-08-07T09:25:20.420Z,101327.64
2022-08-07T09:26:20.812Z,101331.69
2022-08-07T09:27:19.071Z,101327.28
2022-08-07T09:30:02.368Z,101330.22
2022-08-07T09:30:06.698Z,101331.84
2022-08-07T09:30:14.204Z,101330.02
2022-08-07T09:31:23.187Z,101330.28
2022-08-07T09:32:21.111Z,101327.31
2022-08-07T09:33:41.300Z,101327.31
2022-08-07T09:34:20.877Z,101325.58
2022-08-07T09:36:04.306Z,101324.82
2022-08-07T09:36:21.265Z,101328.57
2022-08-07T09:37:21.299Z,101330.99
2022-08-07T09:38:23.374Z,101326.56
2022-08-07T09:39:54.076Z,101325.13
2022-08-07T09:40:23.340Z,101325.46
2022-08-07T09:41:19.062Z,101324.19
2022-08-07T09:42:23.131Z,101322.38
2022-08-07T09:43:19.058Z,101322.58
2022-08-07T09:44:30.239Z,101316.13
2022-08-07T09:47:24.255Z,101319.52
2022-08-07T09:47:24.706Z,101314.98
2022-08-07T09:47:49.519Z,101316.92
2022-08-07T09:48:29.785Z,101317.56
2022-08-07T09:50:00.761Z,101317.33
2022-08-07T09:50:23.218Z,101313.60
2022-08-07T09:52:10.725Z,101316.85
2022-08-07T09:52:34.633Z,101312.90
2022-08-07T09:53:15.096Z,101310.18
2022-08-07T09:54:19.066Z,101311.89
2022-08-07T09:55:29.900Z,101318.98
2022-08-07T09:56:37.151Z,101313.59
2022-08-07T09:57:21.287Z,101316.93
2022-08-07T09:58:19.065Z,101318.55
2022-08-07T09:59:21.917Z,101309.29
2022-08-07T10:00:14.765Z,101309.50
2022-08-07T10:01:53.163Z,101308.21
2022-08-07T10:02:24.221Z,101308.02
2022-08-07T10:04:05.963Z,101305.78
2022-08-07T10:04:28.310Z,101305.86
2022-08-07T10:05:21.300Z,101306.66
2022-08-07T10:06:24.336Z,101304.07
2022-08-07T10:07:39.927Z,101301.43
2022-08-07T10:08:21.330Z,101299.94
2022-08-07T10:09:23.625Z,101301.07
2022-08-07T10:10:22.808Z,101299.79
2022-08-07T10:12:02.432Z,101297.07
2022-08-07T10:12:21.921Z,101299.56
2022-08-07T10:13:55.470Z,101300.74
2022-08-07T10:14:30.347Z,101303.47
2022-08-07T10:15:21.306Z,101303.34
2022-08-07T10:16:21.068Z,101301.51
2022-08-07T10:17:21.074Z,101300.34
2022-08-07T10:18:19.068Z,101299.16
2022-08-07T10:19:19.066Z,101298.94
2022-08-07T10:20:21.838Z,101297.90
2022-08-07T10:22:12.156Z,101299.57
2022-08-07T10:22:24.958Z,101294.79
2022-08-07T10:24:05.346Z,101295.12
2022-08-07T10:24:21.567Z,101292.21
2022-08-07T10:25:22.899Z,101294.11
2022-08-07T10:26:24.745Z,101290.56
2022-08-07T10:27:21.316Z,101290.68
2022-08-07T10:28:21.059Z,101288.72
2022-08-07T10:29:21.062Z,101287.08
2022-08-07T10:30:13.078Z,101290.27
2022-08-07T10:31:19.061Z,101286.38
2022-08-07T10:32:37.113Z,101290.88
2022-08-07T10:34:04.894Z,101284.48
2022-08-07T10:34:27.343Z,101279.62
2022-08-07T10:35:25.478Z,101283.77
2022-08-07T10:36:19.068Z,101283.96
2022-08-07T10:37:26.463Z,101277.38
2022-08-07T10:38:41.154Z,101277.04
2022-08-07T10:39:21.376Z,101277.96
2022-08-07T10:40:21.067Z,101276.58
2022-08-07T10:41:46.896Z,101277.43
2022-08-07T10:42:31.218Z,101277.94
2022-08-07T10:43:34.129Z,101279.94
2022-08-07T10:44:37.375Z,101276.09
2022-08-07T10:45:44.044Z,101278.13
2022-08-07T10:46:17.124Z,101276.05
2022-08-07T10:47:19.061Z,101272.45
2022-08-07T10:48:21.278Z,101269.75
2022-08-07T10:49:24.574Z,101268.78
2022-08-07T10:50:26.013Z,101269.63
2022-08-07T10:51:39.264Z,101270.37
2022-08-07T10:52:21.272Z,101269.18
2022-08-07T10:53:23.223Z,101272.14
2022-08-07T10:54:17.409Z,101271.38
2022-08-07T10:55:27.059Z,101268.72
2022-08-07T10:56:31.111Z,101266.97
2022-08-07T10:57:33.978Z,101265.08
2022-08-07T10:58:24.965Z,101260.54
2022-08-07T10:59:22.062Z,101264.60
2022-08-07T11:00:42.846Z,101266.36
2022-08-07T11:01:22.258Z,101267.14
2022-08-07T11:02:33.358Z,101265.30
2022-08-07T11:03:23.085Z,101263.98
2022-08-07T11:04:32.030Z,101263.40
2022-08-07T11:05:21.234Z,101263.51
2022-08-07T11:06:19.070Z,101263.95
2022-08-07T11:07:56.869Z,101264.00
2022-08-07T11:08:21.301Z,101263.35
2022-08-07T11:10:09.433Z,101261.32
2022-08-07T11:10:24.266Z,101263.94
2022-08-07T11:11:20.963Z,101259.02
2022-08-07T11:12:31.312Z,101262.19
2022-08-07T11:14:43.877Z,101261.43
2022-08-07T11:14:44.103Z,101257.35
2022-08-07T11:15:17.654Z,101258.27
2022-08-07T11:16:29.820Z,101251.53
2022-08-07T11:17:23.273Z,101249.79
2022-08-07T11:18:22.320Z,101249.13
2022-08-07T11:19:27.094Z,101249.22
2022-08-07T11:20:17.067Z,101248.39
2022-08-07T11:21:19.065Z,101248.79
2022-08-07T11:22:32.546Z,101249.95
2022-08-07T11:23:30.342Z,101247.65
2022-08-07T11:24:21.264Z,101245.20